sensor_id;sensor_type;location;lat;lon;timestamp;pressure;altitude;pressure_sealevel;temperature;humidity
25526;BME280;13424;48.424;11.258;2023-05-27T00:01:48;96263.91;;;17.65;57.90
25526;BME280;13424;48.424;11.258;2023-05-27T00:04:14;96269.91;;;17.87;57.45
25526;BME280;13424;48.424;11.258;2023-05-27T00:06:39;96261.47;;;17.68;57.78
25526;BME280;13424;48.424;11.258;2023-05-27T00:09:05;96266.06;;;17.57;58.07
25526;BME280;13424;48.424;11.258;2023-05-27T00:11:31;96269.03;;;17.66;57.91
25526;BME280;13424;48.424;11.258;2023-05-27T00:13:57;96252.63;;;17.73;57.14
25526;BME280;13424;48.424;11.258;2023-05-27T00:16:23;96270.63;;;17.47;58.48
25526;BME280;13424;48.424;11.258;2023-05-27T00:18:49;96262.84;;;17.55;57.90
25526;BME280;13424;48.424;11.258;2023-05-27T00:21:15;96261.16;;;17.24;58.29
25526;BME280;13424;48.424;11.258;2023-05-27T00:23:45;96262.81;;;17.40;57.89
25526;BME280;13424;48.424;11.258;2023-05-27T00:29:52;96262.50;;;17.37;58.19
25526;BME280;13424;48.424;11.258;2023-05-27T00:32:18;96257.38;;;17.35;57.54
25526;BME280;13424;48.424;11.258;2023-05-27T00:34:45;96262.00;;;17.40;57.16
25526;BME280;13424;48.424;11.258;2023-05-27T00:37:10;96260.09;;;17.30;57.38
25526;BME280;13424;48.424;11.258;2023-05-27T00:39:36;96259.00;;;17.31;57.90
25526;BME280;13424;48.424;11.258;2023-05-27T00:42:02;96262.75;;;17.25;57.50
25526;BME280;13424;48.424;11.258;2023-05-27T00:44:28;96256.03;;;17.22;57.43
25526;BME280;13424;48.424;11.258;2023-05-27T00:50:27;96253.00;;;17.09;57.75
25526;BME280;13424;48.424;11.258;2023-05-27T00:52:54;96263.84;;;17.34;57.08
25526;BME280;13424;48.424;11.258;2023-05-27T00:55:26;96250.63;;;17.27;57.17
25526;BME280;13424;48.424;11.258;2023-05-27T00:57:52;96258.72;;;17.22;56.79
25526;BME280;13424;48.424;11.258;2023-05-27T01:00:22;96246.50;;;17.05;57.44
25526;BME280;13424;48.424;11.258;2023-05-27T01:02:48;96254.13;;;17.18;57.71
25526;BME280;13424;48.424;11.258;2023-05-27T01:05:15;96251.53;;;16.81;57.74
25526;BME280;13424;48.424;11.258;2023-05-27T01:07:59;96249.81;;;17.17;57.32
25526;BME280;13424;48.424;11.258;2023-05-27T01:10:54;96253.03;;;17.19;57.66
25526;BME280;13424;48.424;11.258;2023-05-27T01:13:38;96248.94;;;17.01;58.03
25526;BME280;13424;48.424;11.258;2023-05-27T01:16:11;96252.13;;;16.40;59.07
25526;BME280;13424;48.424;11.258;2023-05-27T01:18:40;96247.03;;;16.91;58.23
25526;BME280;13424;48.424;11.258;2023-05-27T01:21:13;96248.63;;;16.97;58.15
25526;BME280;13424;48.424;11.258;2023-05-27T01:23:43;96250.63;;;16.65;58.45
25526;BME280;13424;48.424;11.258;2023-05-27T01:26:10;96241.63;;;16.91;58.32
25526;BME280;13424;48.424;11.258;2023-05-27T01:28:39;96240.81;;;16.91;58.44
25526;BME280;13424;48.424;11.258;2023-05-27T01:31:19;96239.66;;;16.71;58.57
25526;BME280;13424;48.424;11.258;2023-05-27T01:33:59;96237.47;;;16.68;58.46
25526;BME280;13424;48.424;11.258;2023-05-27T01:36:28;96238.47;;;16.52;58.97
25526;BME280;13424;48.424;11.258;2023-05-27T01:39:03;96238.75;;;16.56;59.04
25526;BME280;13424;48.424;11.258;2023-05-27T01:41:30;96235.50;;;16.54;58.84
25526;BME280;13424;48.424;11.258;2023-05-27T01:44:01;96237.22;;;16.70;58.66
25526;BME280;13424;48.424;11.258;2023-05-27T01:46:27;96229.63;;;16.62;58.69
25526;BME280;13424;48.424;11.258;2023-05-27T01:48:58;96235.91;;;16.78;58.69
25526;BME280;13424;48.424;11.258;2023-05-27T01:51:23;96237.41;;;16.58;59.11
25526;BME280;13424;48.424;11.258;2023-05-27T01:53:49;96236.72;;;16.78;58.40
25526;BME280;13424;48.424;11.258;2023-05-27T01:56:15;96230.53;;;16.78;58.60
25526;BME280;13424;48.424;11.258;2023-05-27T01:58:53;96233.88;;;16.53;58.96
25526;BME280;13424;48.424;11.258;2023-05-27T02:01:21;96239.28;;;16.53;59.50
25526;BME280;13424;48.424;11.258;2023-05-27T02:03:48;96239.69;;;16.29;59.77
25526;BME280;13424;48.424;11.258;2023-05-27T02:06:14;96245.13;;;16.39;59.76
25526;BME280;13424;48.424;11.258;2023-05-27T02:08:40;96242.81;;;16.16;60.84
25526;BME280;13424;48.424;11.258;2023-05-27T02:11:06;96233.72;;;15.85;60.57
25526;BME280;13424;48.424;11.258;2023-05-27T02:13:32;96231.19;;;16.05;60.45
25526;BME280;13424;48.424;11.258;2023-05-27T02:15:58;96232.31;;;16.14;60.09
25526;BME280;13424;48.424;11.258;2023-05-27T02:18:23;96238.34;;;15.95;60.29
25526;BME280;13424;48.424;11.258;2023-05-27T02:20:57;96229.72;;;15.93;60.30
25526;BME280;13424;48.424;11.258;2023-05-27T02:23:23;96228.00;;;15.76;60.13
25526;BME280;13424;48.424;11.258;2023-05-27T02:25:48;96231.19;;;16.10;59.94
25526;BME280;13424;48.424;11.258;2023-05-27T02:28:14;96225.22;;;16.03;59.69
25526;BME280;13424;48.424;11.258;2023-05-27T02:30:40;96224.41;;;16.03;59.55
25526;BME280;13424;48.424;11.258;2023-05-27T02:33:06;96223.97;;;16.16;59.25
25526;BME280;13424;48.424;11.258;2023-05-27T02:35:32;96227.16;;;16.08;59.63
25526;BME280;13424;48.424;11.258;2023-05-27T02:37:58;96218.53;;;16.06;59.53
25526;BME280;13424;48.424;11.258;2023-05-27T02:40:26;96221.19;;;16.01;59.78
25526;BME280;13424;48.424;11.258;2023-05-27T02:42:55;96214.72;;;15.97;60.22
25526;BME280;13424;48.424;11.258;2023-05-27T02:45:21;96211.25;;;15.64;60.70
25526;BME280;13424;48.424;11.258;2023-05-27T02:47:47;96220.34;;;15.63;61.18
25526;BME280;13424;48.424;11.258;2023-05-27T02:50:13;96216.63;;;15.69;60.86
25526;BME280;13424;48.424;11.258;2023-05-27T02:52:39;96206.78;;;15.53;60.29
25526;BME280;13424;48.424;11.258;2023-05-27T02:55:06;96211.78;;;15.66;60.47
25526;BME280;13424;48.424;11.258;2023-05-27T02:57:33;96213.47;;;15.77;60.17
25526;BME280;13424;48.424;11.258;2023-05-27T02:59:59;96215.28;;;15.67;60.33
25526;BME280;13424;48.424;11.258;2023-05-27T03:02:25;96219.88;;;15.71;60.39
25526;BME280;13424;48.424;11.258;2023-05-27T03:04:50;96214.41;;;15.61;60.73
25526;BME280;13424;48.424;11.258;2023-05-27T03:07:16;96211.72;;;15.61;60.82
25526;BME280;13424;48.424;11.258;2023-05-27T03:09:42;96211.66;;;15.56;61.27
25526;BME280;13424;48.424;11.258;2023-05-27T03:12:08;96206.25;;;15.24;61.23
25526;BME280;13424;48.424;11.258;2023-05-27T03:14:34;96217.09;;;15.61;60.87
25526;BME280;13424;48.424;11.258;2023-05-27T03:16:59;96210.09;;;15.60;60.06
25526;BME280;13424;48.424;11.258;2023-05-27T03:19:25;96214.50;;;15.71;59.74
25526;BME280;13424;48.424;11.258;2023-05-27T03:21:51;96207.00;;;15.73;60.07
25526;BME280;13424;48.424;11.258;2023-05-27T03:24:17;96208.09;;;15.77;60.27
25526;BME280;13424;48.424;11.258;2023-05-27T03:26:43;96217.00;;;15.51;61.22
25526;BME280;13424;48.424;11.258;2023-05-27T03:29:10;96211.72;;;15.61;60.27
25526;BME280;13424;48.424;11.258;2023-05-27T03:31:36;96214.72;;;15.38;60.92
25526;BME280;13424;48.424;11.258;2023-05-27T03:34:10;96217.19;;;15.44;60.75
25526;BME280;13424;48.424;11.258;2023-05-27T03:40:16;96215.19;;;15.29;61.31
25526;BME280;13424;48.424;11.258;2023-05-27T03:42:42;96212.09;;;15.43;61.10
25526;BME280;13424;48.424;11.258;2023-05-27T03:45:08;96217.41;;;15.38;61.40
25526;BME280;13424;48.424;11.258;2023-05-27T03:47:44;96221.69;;;15.33;61.67
25526;BME280;13424;48.424;11.258;2023-05-27T03:50:10;96217.59;;;15.31;61.85
25526;BME280;13424;48.424;11.258;2023-05-27T03:52:36;96221.06;;;15.26;62.45
25526;BME280;13424;48.424;11.258;2023-05-27T03:55:02;96213.25;;;14.98;62.30
25526;BME280;13424;48.424;11.258;2023-05-27T03:57:28;96225.59;;;14.99;61.83
25526;BME280;13424;48.424;11.258;2023-05-27T03:59:54;96221.25;;;15.47;59.98
25526;BME280;13424;48.424;11.258;2023-05-27T04:02:20;96217.94;;;15.40;60.09
25526;BME280;13424;48.424;11.258;2023-05-27T04:04:46;96216.03;;;15.62;59.71
25526;BME280;13424;48.424;11.258;2023-05-27T04:07:12;96212.56;;;15.34;60.09
25526;BME280;13424;48.424;11.258;2023-05-27T04:09:38;96213.66;;;15.66;59.89
25526;BME280;13424;48.424;11.258;2023-05-27T04:12:29;96219.69;;;15.51;60.79
25526;BME280;13424;48.424;11.258;2023-05-27T04:14:55;96216.53;;;15.59;60.82
25526;BME280;13424;48.424;11.258;2023-05-27T04:17:30;96208.47;;;15.59;61.49
25526;BME280;13424;48.424;11.258;2023-05-27T04:19:56;96218.00;;;15.45;61.56
25526;BME280;13424;48.424;11.258;2023-05-27T04:22:23;96217.31;;;15.27;61.75
25526;BME280;13424;48.424;11.258;2023-05-27T04:24:49;96216.19;;;15.23;60.91
25526;BME280;13424;48.424;11.258;2023-05-27T04:27:15;96217.94;;;15.40;59.99
25526;BME280;13424;48.424;11.258;2023-05-27T04:29:42;96222.88;;;15.75;59.55
25526;BME280;13424;48.424;11.258;2023-05-27T04:32:12;96221.13;;;15.96;59.50
25526;BME280;13424;48.424;11.258;2023-05-27T04:34:39;96219.94;;;15.76;59.66
25526;BME280;13424;48.424;11.258;2023-05-27T04:37:07;96218.31;;;15.75;59.48
25526;BME280;13424;48.424;11.258;2023-05-27T04:39:36;96215.44;;;15.87;58.61
25526;BME280;13424;48.424;11.258;2023-05-27T04:42:02;96221.91;;;16.33;58.09
25526;BME280;13424;48.424;11.258;2023-05-27T04:44:43;96226.50;;;15.90;58.93
25526;BME280;13424;48.424;11.258;2023-05-27T04:47:10;96225.72;;;16.37;58.77
25526;BME280;13424;48.424;11.258;2023-05-27T04:49:36;96225.28;;;16.56;57.73
25526;BME280;13424;48.424;11.258;2023-05-27T04:52:02;96224.13;;;16.41;58.16
25526;BME280;13424;48.424;11.258;2023-05-27T04:54:31;96230.13;;;16.59;57.79
25526;BME280;13424;48.424;11.258;2023-05-27T04:56:58;96223.03;;;16.37;58.55
25526;BME280;13424;48.424;11.258;2023-05-27T04:59:32;96224.66;;;16.38;58.09
25526;BME280;13424;48.424;11.258;2023-05-27T05:02:13;96219.31;;;16.43;58.33
25526;BME280;13424;48.424;11.258;2023-05-27T05:05:07;96220.66;;;17.03;57.09
25526;BME280;13424;48.424;11.258;2023-05-27T05:07:44;96230.69;;;16.66;57.20
25526;BME280;13424;48.424;11.258;2023-05-27T05:10:12;96227.81;;;17.91;55.70
25526;BME280;13424;48.424;11.258;2023-05-27T05:12:46;96221.50;;;19.21;52.50
25526;BME280;13424;48.424;11.258;2023-05-27T05:15:12;96226.25;;;19.40;51.44
25526;BME280;13424;48.424;11.258;2023-05-27T05:17:38;96222.94;;;20.21;49.91
25526;BME280;13424;48.424;11.258;2023-05-27T05:20:05;96235.38;;;20.56;49.44
25526;BME280;13424;48.424;11.258;2023-05-27T05:22:34;96233.91;;;20.64;48.43
25526;BME280;13424;48.424;11.258;2023-05-27T05:25:00;96234.09;;;19.86;50.95
25526;BME280;13424;48.424;11.258;2023-05-27T05:27:32;96222.03;;;19.23;51.93
25526;BME280;13424;48.424;11.258;2023-05-27T05:29:58;96230.50;;;20.24;50.41
25526;BME280;13424;48.424;11.258;2023-05-27T05:32:24;96229.16;;;20.99;48.34
25526;BME280;13424;48.424;11.258;2023-05-27T05:34:51;96241.63;;;21.61;47.81
25526;BME280;13424;48.424;11.258;2023-05-27T05:37:18;96242.25;;;22.42;45.75
25526;BME280;13424;48.424;11.258;2023-05-27T05:39:45;96235.88;;;20.82;47.92
25526;BME280;13424;48.424;11.258;2023-05-27T05:42:11;96236.53;;;20.45;48.62
25526;BME280;13424;48.424;11.258;2023-05-27T05:44:37;96242.63;;;19.98;50.84
25526;BME280;13424;48.424;11.258;2023-05-27T05:47:04;96229.88;;;18.50;52.52
25526;BME280;13424;48.424;11.258;2023-05-27T05:49:30;96238.53;;;18.32;54.52
25526;BME280;13424;48.424;11.258;2023-05-27T05:51:56;96241.56;;;18.25;54.22
25526;BME280;13424;48.424;11.258;2023-05-27T05:54:22;96232.59;;;18.40;56.00
25526;BME280;13424;48.424;11.258;2023-05-27T05:56:53;96228.75;;;18.72;53.06
25526;BME280;13424;48.424;11.258;2023-05-27T05:59:19;96229.84;;;18.60;54.82
25526;BME280;13424;48.424;11.258;2023-05-27T06:01:45;96233.91;;;18.53;53.22
25526;BME280;13424;48.424;11.258;2023-05-27T06:04:11;96232.84;;;18.59;53.76
25526;BME280;13424;48.424;11.258;2023-05-27T06:06:40;96231.75;;;19.24;51.97
25526;BME280;13424;48.424;11.258;2023-05-27T06:09:32;96232.31;;;18.52;54.11
25526;BME280;13424;48.424;11.258;2023-05-27T06:12:02;96246.38;;;18.44;54.00
25526;BME280;13424;48.424;11.258;2023-05-27T06:14:35;96247.53;;;19.02;52.86
25526;BME280;13424;48.424;11.258;2023-05-27T06:20:42;96238.28;;;20.02;52.23
25526;BME280;13424;48.424;11.258;2023-05-27T06:23:08;96239.69;;;19.60;53.24
25526;BME280;13424;48.424;11.258;2023-05-27T06:25:59;96242.13;;;19.12;54.85
25526;BME280;13424;48.424;11.258;2023-05-27T06:28:28;96240.97;;;19.18;53.75
25526;BME280;13424;48.424;11.258;2023-05-27T06:30:54;96238.31;;;19.13;53.02
25526;BME280;13424;48.424;11.258;2023-05-27T06:33:20;96243.38;;;19.25;53.30
25526;BME280;13424;48.424;11.258;2023-05-27T06:35:47;96242.50;;;19.40;54.42
25526;BME280;13424;48.424;11.258;2023-05-27T06:38:13;96242.41;;;19.55;53.22
25526;BME280;13424;48.424;11.258;2023-05-27T06:40:39;96246.81;;;20.14;52.77
25526;BME280;13424;48.424;11.258;2023-05-27T06:43:06;96239.81;;;19.79;53.45
25526;BME280;13424;48.424;11.258;2023-05-27T06:45:52;96241.44;;;19.80;53.75
25526;BME280;13424;48.424;11.258;2023-05-27T06:48:41;96244.78;;;20.01;53.36
25526;BME280;13424;48.424;11.258;2023-05-27T06:51:07;96239.25;;;20.16;53.46
25526;BME280;13424;48.424;11.258;2023-05-27T06:53:33;96240.06;;;20.17;53.23
25526;BME280;13424;48.424;11.258;2023-05-27T06:56:05;96237.81;;;19.95;52.88
25526;BME280;13424;48.424;11.258;2023-05-27T06:58:50;96241.16;;;19.82;52.76
25526;BME280;13424;48.424;11.258;2023-05-27T07:01:23;96243.13;;;19.71;52.71
25526;BME280;13424;48.424;11.258;2023-05-27T07:03:57;96236.09;;;20.04;53.02
25526;BME280;13424;48.424;11.258;2023-05-27T07:06:43;96237.44;;;20.06;52.73
25526;BME280;13424;48.424;11.258;2023-05-27T07:09:10;96242.53;;;20.71;51.78
25526;BME280;13424;48.424;11.258;2023-05-27T07:11:37;96250.88;;;20.75;51.62
25526;BME280;13424;48.424;11.258;2023-05-27T07:14:08;96242.53;;;20.71;51.58
25526;BME280;13424;48.424;11.258;2023-05-27T07:17:19;96244.28;;;21.05;50.85
25526;BME280;13424;48.424;11.258;2023-05-27T07:19:45;96250.94;;;20.70;52.17
25526;BME280;13424;48.424;11.258;2023-05-27T07:22:16;96241.88;;;20.55;53.98
25526;BME280;13424;48.424;11.258;2023-05-27T07:24:42;96256.69;;;21.11;52.23
25526;BME280;13424;48.424;11.258;2023-05-27T07:27:17;96241.28;;;21.06;52.13
25526;BME280;13424;48.424;11.258;2023-05-27T07:29:51;96243.63;;;21.74;50.54
25526;BME280;13424;48.424;11.258;2023-05-27T07:32:36;96236.88;;;21.34;51.00
25526;BME280;13424;48.424;11.258;2023-05-27T07:35:03;96235.44;;;21.93;51.47
25526;BME280;13424;48.424;11.258;2023-05-27T07:37:38;96236.38;;;22.02;50.52
25526;BME280;13424;48.424;11.258;2023-05-27T07:40:05;96235.22;;;22.09;50.26
25526;BME280;13424;48.424;11.258;2023-05-27T07:42:35;96233.38;;;22.04;51.19
25526;BME280;13424;48.424;11.258;2023-05-27T07:45:03;96229.19;;;22.44;49.60
25526;BME280;13424;48.424;11.258;2023-05-27T07:47:29;96232.97;;;21.97;51.83
25526;BME280;13424;48.424;11.258;2023-05-27T07:49:55;96234.31;;;22.46;48.80
25526;BME280;13424;48.424;11.258;2023-05-27T07:52:50;96229.97;;;21.61;48.97
25526;BME280;13424;48.424;11.258;2023-05-27T07:55:22;96237.22;;;21.84;48.50
25526;BME280;13424;48.424;11.258;2023-05-27T07:57:48;96233.63;;;21.70;48.64
25526;BME280;13424;48.424;11.258;2023-05-27T08:00:14;96234.56;;;21.79;48.97
25526;BME280;13424;48.424;11.258;2023-05-27T08:02:52;96229.94;;;21.98;48.31
25526;BME280;13424;48.424;11.258;2023-05-27T08:05:21;96227.81;;;21.95;49.47
25526;BME280;13424;48.424;11.258;2023-05-27T08:07:59;96229.72;;;21.95;47.92
25526;BME280;13424;48.424;11.258;2023-05-27T08:10:54;96232.09;;;21.64;48.00
25526;BME280;13424;48.424;11.258;2023-05-27T08:13:46;96231.22;;;21.68;49.55
25526;BME280;13424;48.424;11.258;2023-05-27T08:16:27;96216.00;;;21.86;49.92
25526;BME280;13424;48.424;11.258;2023-05-27T08:19:06;96221.81;;;22.31;49.53
25526;BME280;13424;48.424;11.258;2023-05-27T08:21:43;96218.63;;;22.10;49.06
25526;BME280;13424;48.424;11.258;2023-05-27T08:24:41;96216.94;;;22.14;49.00
25526;BME280;13424;48.424;11.258;2023-05-27T08:27:53;96212.38;;;22.70;46.33
25526;BME280;13424;48.424;11.258;2023-05-27T08:30:30;96211.00;;;22.26;47.78
25526;BME280;13424;48.424;11.258;2023-05-27T08:33:04;96215.59;;;22.72;49.00
25526;BME280;13424;48.424;11.258;2023-05-27T08:35:30;96209.97;;;23.23;48.10
25526;BME280;13424;48.424;11.258;2023-05-27T08:38:05;96213.59;;;22.64;47.61
25526;BME280;13424;48.424;11.258;2023-05-27T08:40:36;96207.97;;;22.60;49.69
25526;BME280;13424;48.424;11.258;2023-05-27T08:43:02;96200.31;;;23.03;46.43
25526;BME280;13424;48.424;11.258;2023-05-27T08:45:29;96203.25;;;23.43;48.19
25526;BME280;13424;48.424;11.258;2023-05-27T08:47:57;96205.63;;;23.58;48.52
25526;BME280;13424;48.424;11.258;2023-05-27T08:50:30;96210.44;;;22.56;48.81
25526;BME280;13424;48.424;11.258;2023-05-27T08:53:05;96205.13;;;22.65;47.08
25526;BME280;13424;48.424;11.258;2023-05-27T08:55:33;96199.34;;;23.22;47.99
25526;BME280;13424;48.424;11.258;2023-05-27T08:57:59;96210.38;;;23.89;45.03
25526;BME280;13424;48.424;11.258;2023-05-27T09:00:31;96211.91;;;22.95;47.96
25526;BME280;13424;48.424;11.258;2023-05-27T09:03:04;96202.31;;;22.98;47.93
25526;BME280;13424;48.424;11.258;2023-05-27T09:05:32;96201.16;;;23.40;48.21
25526;BME280;13424;48.424;11.258;2023-05-27T09:07:58;96199.16;;;23.68;46.50
25526;BME280;13424;48.424;11.258;2023-05-27T09:10:38;96200.34;;;23.76;46.93
25526;BME280;13424;48.424;11.258;2023-05-27T09:13:04;96202.03;;;23.49;45.05
25526;BME280;13424;48.424;11.258;2023-05-27T09:15:34;96199.69;;;24.23;44.52
25526;BME280;13424;48.424;11.258;2023-05-27T09:18:02;96195.94;;;23.52;49.30
25526;BME280;13424;48.424;11.258;2023-05-27T09:20:29;96195.88;;;23.07;49.03
25526;BME280;13424;48.424;11.258;2023-05-27T09:23:03;96197.09;;;24.18;46.48
25526;BME280;13424;48.424;11.258;2023-05-27T09:25:29;96196.84;;;23.25;46.78
25526;BME280;13424;48.424;11.258;2023-05-27T09:27:55;96192.91;;;23.90;44.86
25526;BME280;13424;48.424;11.258;2023-05-27T09:30:24;96190.94;;;24.04;45.49
25526;BME280;13424;48.424;11.258;2023-05-27T09:32:50;96185.44;;;24.27;45.01
25526;BME280;13424;48.424;11.258;2023-05-27T09:35:17;96185.44;;;24.27;45.74
25526;BME280;13424;48.424;11.258;2023-05-27T09:37:43;96184.91;;;24.47;44.35
25526;BME280;13424;48.424;11.258;2023-05-27T09:44:17;96177.53;;;24.96;44.20
25526;BME280;13424;48.424;11.258;2023-05-27T09:46:44;96180.94;;;24.22;45.50
25526;BME280;13424;48.424;11.258;2023-05-27T09:49:10;96170.78;;;24.14;45.50
25526;BME280;13424;48.424;11.258;2023-05-27T09:51:40;96176.81;;;24.02;46.73
25526;BME280;13424;48.424;11.258;2023-05-27T09:54:06;96175.84;;;25.09;44.53
25526;BME280;13424;48.424;11.258;2023-05-27T09:56:33;96169.56;;;23.75;46.36
25526;BME280;13424;48.424;11.258;2023-05-27T09:59:00;96180.41;;;24.73;47.60
25526;BME280;13424;48.424;11.258;2023-05-27T10:01:28;96171.94;;;24.44;44.63
25526;BME280;13424;48.424;11.258;2023-05-27T10:03:55;96178.78;;;25.29;42.29
25526;BME280;13424;48.424;11.258;2023-05-27T10:06:25;96170.88;;;24.62;42.84
25526;BME280;13424;48.424;11.258;2023-05-27T10:08:55;96170.06;;;24.62;42.31
25526;BME280;13424;48.424;11.258;2023-05-27T10:11:30;96168.16;;;24.62;43.94
25526;BME280;13424;48.424;11.258;2023-05-27T10:13:56;96165.09;;;24.64;44.49
25526;BME280;13424;48.424;11.258;2023-05-27T10:16:23;96161.00;;;24.13;42.28
25526;BME280;13424;48.424;11.258;2023-05-27T10:18:53;96154.94;;;24.47;42.53
25526;BME280;13424;48.424;11.258;2023-05-27T10:21:21;96159.63;;;24.55;41.87
25526;BME280;13424;48.424;11.258;2023-05-27T10:24:00;96148.66;;;24.86;44.64
25526;BME280;13424;48.424;11.258;2023-05-27T10:26:40;96145.69;;;24.26;43.68
25526;BME280;13424;48.424;11.258;2023-05-27T10:29:14;96147.25;;;23.64;45.25
25526;BME280;13424;48.424;11.258;2023-05-27T10:31:51;96148.22;;;24.53;46.64
25526;BME280;13424;48.424;11.258;2023-05-27T10:34:17;96151.00;;;25.45;44.13
25526;BME280;13424;48.424;11.258;2023-05-27T10:36:45;96151.00;;;25.71;41.59
25526;BME280;13424;48.424;11.258;2023-05-27T10:39:18;96149.88;;;25.46;42.58
25526;BME280;13424;48.424;11.258;2023-05-27T10:41:54;96155.78;;;25.04;43.52
25526;BME280;13424;48.424;11.258;2023-05-27T10:44:34;96148.13;;;24.67;43.59
25526;BME280;13424;48.424;11.258;2023-05-27T10:47:11;96149.38;;;25.09;41.40
25526;BME280;13424;48.424;11.258;2023-05-27T10:49:40;96139.44;;;25.30;40.78
25526;BME280;13424;48.424;11.258;2023-05-27T10:52:10;96147.66;;;24.73;43.76
25526;BME280;13424;48.424;11.258;2023-05-27T10:54:47;96144.66;;;24.13;43.58
25526;BME280;13424;48.424;11.258;2023-05-27T10:57:16;96148.44;;;25.40;41.07
25526;BME280;13424;48.424;11.258;2023-05-27T10:59:51;96135.72;;;25.87;42.68
25526;BME280;13424;48.424;11.258;2023-05-27T11:02:19;96134.22;;;24.86;42.81
25526;BME280;13424;48.424;11.258;2023-05-27T11:04:45;96148.44;;;25.92;42.14
25526;BME280;13424;48.424;11.258;2023-05-27T11:07:11;96135.69;;;25.00;44.02
25526;BME280;13424;48.424;11.258;2023-05-27T11:09:51;96136.88;;;25.60;42.56
25526;BME280;13424;48.424;11.258;2023-05-27T11:12:19;96124.06;;;24.69;42.71
25526;BME280;13424;48.424;11.258;2023-05-27T11:14:51;96126.09;;;25.55;42.21
25526;BME280;13424;48.424;11.258;2023-05-27T11:17:18;96124.66;;;25.49;42.30
25526;BME280;13424;48.424;11.258;2023-05-27T11:19:44;96116.09;;;24.90;43.40
25526;BME280;13424;48.424;11.258;2023-05-27T11:22:13;96115.81;;;25.17;42.57
25526;BME280;13424;48.424;11.258;2023-05-27T11:24:39;96105.00;;;25.90;40.58
25526;BME280;13424;48.424;11.258;2023-05-27T11:27:10;96112.44;;;25.03;43.01
25526;BME280;13424;48.424;11.258;2023-05-27T11:29:49;96105.66;;;24.92;42.79
25526;BME280;13424;48.424;11.258;2023-05-27T11:32:16;96097.00;;;25.59;43.83
25526;BME280;13424;48.424;11.258;2023-05-27T11:34:44;96104.91;;;25.52;41.78
25526;BME280;13424;48.424;11.258;2023-05-27T11:37:11;96099.44;;;25.69;40.37
25526;BME280;13424;48.424;11.258;2023-05-27T11:39:38;96102.47;;;25.59;41.59
25526;BME280;13424;48.424;11.258;2023-05-27T11:42:14;96093.63;;;25.01;41.50
25526;BME280;13424;48.424;11.258;2023-05-27T11:44:50;96096.09;;;25.38;41.72
25526;BME280;13424;48.424;11.258;2023-05-27T11:50:42;96084.00;;;25.56;41.25
25526;BME280;13424;48.424;11.258;2023-05-27T11:53:08;96075.22;;;26.53;40.77
25526;BME280;13424;48.424;11.258;2023-05-27T11:55:34;96074.06;;;26.62;41.49
25526;BME280;13424;48.424;11.258;2023-05-27T11:58:00;96071.25;;;25.95;41.29
25526;BME280;13424;48.424;11.258;2023-05-27T12:00:25;96070.94;;;25.96;41.68
25526;BME280;13424;48.424;11.258;2023-05-27T12:02:51;96068.66;;;26.45;40.78
25526;BME280;13424;48.424;11.258;2023-05-27T12:05:17;96064.53;;;25.66;40.17
25526;BME280;13424;48.424;11.258;2023-05-27T12:07:43;96063.13;;;25.43;42.38
25526;BME280;13424;48.424;11.258;2023-05-27T12:10:10;96057.97;;;25.67;44.50
25526;BME280;13424;48.424;11.258;2023-05-27T12:12:36;96060.03;;;25.87;44.80
25526;BME280;13424;48.424;11.258;2023-05-27T12:18:44;96052.38;;;25.55;39.66
25526;BME280;13424;48.424;11.258;2023-05-27T12:21:10;96044.44;;;25.88;40.42
25526;BME280;13424;48.424;11.258;2023-05-27T12:23:36;96037.56;;;25.73;41.01
25526;BME280;13424;48.424;11.258;2023-05-27T12:26:52;96037.56;;;25.65;39.77
25526;BME280;13424;48.424;11.258;2023-05-27T12:29:18;96039.38;;;25.43;40.53
25526;BME280;13424;48.424;11.258;2023-05-27T12:31:43;96038.25;;;25.36;42.95
25526;BME280;13424;48.424;11.258;2023-05-27T12:34:10;96048.13;;;26.39;41.80
25526;BME280;13424;48.424;11.258;2023-05-27T12:36:35;96038.28;;;26.67;39.19
25526;BME280;13424;48.424;11.258;2023-05-27T12:39:01;96028.66;;;26.61;39.23
25526;BME280;13424;48.424;11.258;2023-05-27T12:41:27;96040.97;;;26.17;40.04
25526;BME280;13424;48.424;11.258;2023-05-27T12:43:53;96025.56;;;26.04;39.87
25526;BME280;13424;48.424;11.258;2023-05-27T12:46:18;96028.47;;;25.52;39.93
25526;BME280;13424;48.424;11.258;2023-05-27T12:52:23;96022.06;;;25.22;38.60
25526;BME280;13424;48.424;11.258;2023-05-27T12:54:49;96018.19;;;25.40;39.74
25526;BME280;13424;48.424;11.258;2023-05-27T12:57:14;96017.59;;;25.09;39.72
25526;BME280;13424;48.424;11.258;2023-05-27T12:59:41;96018.94;;;25.75;40.36
25526;BME280;13424;48.424;11.258;2023-05-27T13:02:07;96012.56;;;25.45;39.33
25526;BME280;13424;48.424;11.258;2023-05-27T13:04:33;96010.28;;;26.11;41.09
25526;BME280;13424;48.424;11.258;2023-05-27T13:06:59;96002.63;;;25.96;42.69
25526;BME280;13424;48.424;11.258;2023-05-27T13:09:25;96002.59;;;26.34;42.34
25526;BME280;13424;48.424;11.258;2023-05-27T13:11:51;95998.53;;;25.64;41.27
25526;BME280;13424;48.424;11.258;2023-05-27T13:14:17;96003.41;;;25.41;40.92
25526;BME280;13424;48.424;11.258;2023-05-27T13:16:43;95993.00;;;25.90;40.20
25526;BME280;13424;48.424;11.258;2023-05-27T13:19:09;96003.25;;;25.38;41.30
25526;BME280;13424;48.424;11.258;2023-05-27T13:25:40;95986.38;;;25.53;40.66
25526;BME280;13424;48.424;11.258;2023-05-27T13:28:06;95993.78;;;25.35;40.02
25526;BME280;13424;48.424;11.258;2023-05-27T13:30:32;95984.94;;;25.47;40.31
25526;BME280;13424;48.424;11.258;2023-05-27T13:32:58;95977.50;;;25.56;39.88
25526;BME280;13424;48.424;11.258;2023-05-27T13:35:24;95977.34;;;26.08;40.43
25526;BME280;13424;48.424;11.258;2023-05-27T13:37:49;95980.81;;;25.87;40.12